sensor_id;sensor_type;location;lat;lon;timestamp;P1;durP1;ratioP1;P2;durP2;ratioP2
42364;SDS011;28498;54.400;18.566;2022-11-21T00:02:08;39.55;;;17.60;;
42364;SDS011;28498;54.400;18.566;2022-11-21T00:04:35;42.03;;;18.80;;
42364;SDS011;28498;54.400;18.566;2022-11-21T00:07:02;36.42;;;18.17;;
42364;SDS011;28498;54.400;18.566;2022-11-21T00:09:29;37.97;;;16.80;;
42364;SDS011;28498;54.400;18.566;2022-11-21T00:11:56;35.05;;;16.08;;
42364;SDS011;28498;54.400;18.566;2022-11-21T00:14:23;38.50;;;18.63;;
42364;SDS011;28498;54.400;18.566;2022-11-21T00:16:50;31.67;;;15.15;;
42364;SDS011;28498;54.400;18.566;2022-11-21T00:19:22;31.35;;;14.82;;
42364;SDS011;28498;54.400;18.566;2022-11-21T00:21:49;34.30;;;17.00;;
42364;SDS011;28498;54.400;18.566;2022-11-21T00:24:16;29.70;;;13.75;;
42364;SDS011;28498;54.400;18.566;2022-11-21T00:26:43;27.88;;;12.07;;
42364;SDS011;28498;54.400;18.566;2022-11-21T00:29:10;27.00;;;12.98;;
42364;SDS011;28498;54.400;18.566;2022-11-21T00:31:38;27.60;;;14.15;;
42364;SDS011;28498;54.400;18.566;2022-11-21T00:34:05;29.77;;;13.80;;
42364;SDS011;28498;54.400;18.566;2022-11-21T00:36:31;30.73;;;13.57;;
42364;SDS011;28498;54.400;18.566;2022-11-21T00:38:58;29.23;;;14.07;;
42364;SDS011;28498;54.400;18.566;2022-11-21T00:41:26;27.00;;;12.80;;
42364;SDS011;28498;54.400;18.566;2022-11-21T00:43:52;30.38;;;13.07;;
42364;SDS011;28498;54.400;18.566;2022-11-21T00:46:19;26.45;;;13.13;;
42364;SDS011;28498;54.400;18.566;2022-11-21T00:48:46;25.48;;;12.75;;
42364;SDS011;28498;54.400;18.566;2022-11-21T00:51:13;28.13;;;12.68;;
42364;SDS011;28498;54.400;18.566;2022-11-21T00:53:40;26.33;;;14.18;;
42364;SDS011;28498;54.400;18.566;2022-11-21T00:56:07;29.17;;;14.50;;
42364;SDS011;28498;54.400;18.566;2022-11-21T00:58:34;27.95;;;12.45;;
42364;SDS011;28498;54.400;18.566;2022-11-21T01:01:03;25.17;;;12.15;;
42364;SDS011;28498;54.400;18.566;2022-11-21T01:03:32;26.90;;;12.55;;
42364;SDS011;28498;54.400;18.566;2022-11-21T01:06:04;29.35;;;12.80;;
42364;SDS011;28498;54.400;18.566;2022-11-21T01:08:33;30.48;;;13.35;;
42364;SDS011;28498;54.400;18.566;2022-11-21T01:11:05;31.90;;;12.38;;
42364;SDS011;28498;54.400;18.566;2022-11-21T01:13:33;29.73;;;13.65;;
42364;SDS011;28498;54.400;18.566;2022-11-21T01:16:02;28.77;;;13.13;;
42364;SDS011;28498;54.400;18.566;2022-11-21T01:18:30;28.88;;;12.63;;
42364;SDS011;28498;54.400;18.566;2022-11-21T01:20:59;31.25;;;12.63;;
42364;SDS011;28498;54.400;18.566;2022-11-21T01:23:39;26.92;;;12.25;;
42364;SDS011;28498;54.400;18.566;2022-11-21T01:26:09;29.83;;;13.27;;
42364;SDS011;28498;54.400;18.566;2022-11-21T01:28:38;27.83;;;12.27;;
42364;SDS011;28498;54.400;18.566;2022-11-21T01:31:06;23.00;;;12.50;;
42364;SDS011;28498;54.400;18.566;2022-11-21T01:33:38;24.83;;;12.40;;
42364;SDS011;28498;54.400;18.566;2022-11-21T01:36:12;28.13;;;11.60;;
42364;SDS011;28498;54.400;18.566;2022-11-21T01:38:40;29.45;;;14.73;;
42364;SDS011;28498;54.400;18.566;2022-11-21T01:41:10;30.52;;;13.95;;
42364;SDS011;28498;54.400;18.566;2022-11-21T01:43:37;26.83;;;13.43;;
42364;SDS011;28498;54.400;18.566;2022-11-21T01:51:38;29.48;;;13.23;;
42364;SDS011;28498;54.400;18.566;2022-11-21T01:59:26;27.77;;;12.30;;
42364;SDS011;28498;54.400;18.566;2022-11-21T02:01:56;28.73;;;13.82;;
42364;SDS011;28498;54.400;18.566;2022-11-21T02:04:27;27.05;;;12.73;;
42364;SDS011;28498;54.400;18.566;2022-11-21T02:06:58;29.60;;;13.23;;
42364;SDS011;28498;54.400;18.566;2022-11-21T02:09:27;26.23;;;13.68;;
42364;SDS011;28498;54.400;18.566;2022-11-21T02:11:57;27.58;;;13.13;;
42364;SDS011;28498;54.400;18.566;2022-11-21T02:14:29;34.72;;;16.35;;
42364;SDS011;28498;54.400;18.566;2022-11-21T02:16:57;33.70;;;14.13;;
42364;SDS011;28498;54.400;18.566;2022-11-21T02:25:07;26.98;;;14.00;;
42364;SDS011;28498;54.400;18.566;2022-11-21T02:27:40;30.73;;;14.18;;
42364;SDS011;28498;54.400;18.566;2022-11-21T02:30:08;29.60;;;14.45;;
42364;SDS011;28498;54.400;18.566;2022-11-21T02:32:37;33.75;;;14.88;;
42364;SDS011;28498;54.400;18.566;2022-11-21T02:35:07;27.23;;;13.43;;
42364;SDS011;28498;54.400;18.566;2022-11-21T02:37:35;32.03;;;14.20;;
42364;SDS011;28498;54.400;18.566;2022-11-21T02:40:07;36.40;;;14.18;;
42364;SDS011;28498;54.400;18.566;2022-11-21T02:47:55;27.48;;;13.45;;
42364;SDS011;28498;54.400;18.566;2022-11-21T02:50:30;29.27;;;13.77;;
42364;SDS011;28498;54.400;18.566;2022-11-21T02:52:59;29.83;;;14.23;;
42364;SDS011;28498;54.400;18.566;2022-11-21T02:55:26;31.55;;;14.57;;
42364;SDS011;28498;54.400;18.566;2022-11-21T02:57:54;36.80;;;14.60;;
42364;SDS011;28498;54.400;18.566;2022-11-21T03:00:26;42.30;;;14.73;;
42364;SDS011;28498;54.400;18.566;2022-11-21T03:02:53;32.75;;;14.82;;
42364;SDS011;28498;54.400;18.566;2022-11-21T03:05:21;36.83;;;14.60;;
42364;SDS011;28498;54.400;18.566;2022-11-21T03:07:49;32.97;;;15.13;;
42364;SDS011;28498;54.400;18.566;2022-11-21T03:10:16;36.22;;;15.75;;
42364;SDS011;28498;54.400;18.566;2022-11-21T03:12:43;36.38;;;16.08;;
42364;SDS011;28498;54.400;18.566;2022-11-21T03:15:11;37.55;;;16.80;;
42364;SDS011;28498;54.400;18.566;2022-11-21T03:17:40;34.05;;;16.20;;
42364;SDS011;28498;54.400;18.566;2022-11-21T03:20:07;40.72;;;16.38;;
42364;SDS011;28498;54.400;18.566;2022-11-21T03:22:34;39.42;;;18.00;;
42364;SDS011;28498;54.400;18.566;2022-11-21T03:25:01;34.85;;;14.52;;
42364;SDS011;28498;54.400;18.566;2022-11-21T03:27:29;41.30;;;16.75;;
42364;SDS011;28498;54.400;18.566;2022-11-21T03:29:56;39.90;;;15.93;;
42364;SDS011;28498;54.400;18.566;2022-11-21T03:32:23;38.38;;;16.58;;
42364;SDS011;28498;54.400;18.566;2022-11-21T03:34:50;39.90;;;17.10;;
42364;SDS011;28498;54.400;18.566;2022-11-21T03:37:18;40.15;;;16.73;;
42364;SDS011;28498;54.400;18.566;2022-11-21T03:39:46;39.95;;;16.70;;
42364;SDS011;28498;54.400;18.566;2022-11-21T03:42:13;37.83;;;17.30;;
42364;SDS011;28498;54.400;18.566;2022-11-21T03:44:40;42.85;;;18.13;;
42364;SDS011;28498;54.400;18.566;2022-11-21T03:47:07;38.33;;;17.45;;
42364;SDS011;28498;54.400;18.566;2022-11-21T03:49:34;38.92;;;17.45;;
42364;SDS011;28498;54.400;18.566;2022-11-21T03:52:01;38.22;;;16.63;;
42364;SDS011;28498;54.400;18.566;2022-11-21T03:54:28;36.67;;;16.65;;
42364;SDS011;28498;54.400;18.566;2022-11-21T03:56:56;39.42;;;16.83;;
42364;SDS011;28498;54.400;18.566;2022-11-21T03:59:23;41.55;;;16.25;;
42364;SDS011;28498;54.400;18.566;2022-11-21T04:01:51;39.28;;;17.23;;
42364;SDS011;28498;54.400;18.566;2022-11-21T04:04:18;39.15;;;16.42;;
42364;SDS011;28498;54.400;18.566;2022-11-21T04:06:45;36.20;;;16.90;;
42364;SDS011;28498;54.400;18.566;2022-11-21T04:09:13;40.45;;;16.67;;
42364;SDS011;28498;54.400;18.566;2022-11-21T04:11:40;45.63;;;17.25;;
42364;SDS011;28498;54.400;18.566;2022-11-21T04:14:07;43.13;;;16.10;;
42364;SDS011;28498;54.400;18.566;2022-11-21T04:16:34;40.20;;;16.67;;
42364;SDS011;28498;54.400;18.566;2022-11-21T04:19:01;34.03;;;14.73;;
42364;SDS011;28498;54.400;18.566;2022-11-21T04:21:27;37.65;;;16.23;;
42364;SDS011;28498;54.400;18.566;2022-11-21T04:23:55;37.55;;;16.95;;
42364;SDS011;28498;54.400;18.566;2022-11-21T04:26:22;39.63;;;16.35;;
42364;SDS011;28498;54.400;18.566;2022-11-21T04:28:48;42.85;;;17.85;;
42364;SDS011;28498;54.400;18.566;2022-11-21T04:31:16;42.42;;;16.63;;
42364;SDS011;28498;54.400;18.566;2022-11-21T04:33:42;43.00;;;16.98;;
42364;SDS011;28498;54.400;18.566;2022-11-21T04:36:09;39.03;;;18.17;;
42364;SDS011;28498;54.400;18.566;2022-11-21T04:38:36;39.20;;;16.52;;
42364;SDS011;28498;54.400;18.566;2022-11-21T04:41:03;41.45;;;16.75;;
42364;SDS011;28498;54.400;18.566;2022-11-21T04:43:30;39.17;;;17.50;;
42364;SDS011;28498;54.400;18.566;2022-11-21T04:45:57;41.03;;;16.55;;
42364;SDS011;28498;54.400;18.566;2022-11-21T04:48:24;35.33;;;16.45;;
42364;SDS011;28498;54.400;18.566;2022-11-21T04:50:51;35.15;;;16.52;;
42364;SDS011;28498;54.400;18.566;2022-11-21T04:53:17;34.22;;;15.75;;
42364;SDS011;28498;54.400;18.566;2022-11-21T04:55:44;34.33;;;15.30;;
42364;SDS011;28498;54.400;18.566;2022-11-21T04:58:11;35.13;;;15.00;;
42364;SDS011;28498;54.400;18.566;2022-11-21T05:00:38;31.67;;;14.15;;
42364;SDS011;28498;54.400;18.566;2022-11-21T05:03:06;35.78;;;15.57;;
42364;SDS011;28498;54.400;18.566;2022-11-21T05:05:33;39.75;;;15.20;;
42364;SDS011;28498;54.400;18.566;2022-11-21T05:08:00;36.38;;;15.48;;
42364;SDS011;28498;54.400;18.566;2022-11-21T05:10:27;34.13;;;14.27;;
42364;SDS011;28498;54.400;18.566;2022-11-21T05:12:57;36.15;;;16.10;;
42364;SDS011;28498;54.400;18.566;2022-11-21T05:15:43;35.05;;;14.95;;
42364;SDS011;28498;54.400;18.566;2022-11-21T05:18:11;38.03;;;15.70;;
42364;SDS011;28498;54.400;18.566;2022-11-21T05:20:38;36.58;;;16.00;;
42364;SDS011;28498;54.400;18.566;2022-11-21T05:23:05;42.92;;;15.77;;
42364;SDS011;28498;54.400;18.566;2022-11-21T05:25:32;32.72;;;15.48;;
42364;SDS011;28498;54.400;18.566;2022-11-21T05:27:59;37.97;;;16.08;;
42364;SDS011;28498;54.400;18.566;2022-11-21T05:30:25;37.67;;;16.30;;
42364;SDS011;28498;54.400;18.566;2022-11-21T05:32:52;40.20;;;17.95;;
42364;SDS011;28498;54.400;18.566;2022-11-21T05:35:19;35.05;;;14.48;;
42364;SDS011;28498;54.400;18.566;2022-11-21T05:37:46;35.67;;;16.15;;
42364;SDS011;28498;54.400;18.566;2022-11-21T05:40:13;30.55;;;14.90;;
42364;SDS011;28498;54.400;18.566;2022-11-21T05:42:43;35.65;;;15.43;;
42364;SDS011;28498;54.400;18.566;2022-11-21T05:45:28;33.80;;;15.82;;
42364;SDS011;28498;54.400;18.566;2022-11-21T05:47:55;37.70;;;15.65;;
42364;SDS011;28498;54.400;18.566;2022-11-21T05:50:22;34.97;;;16.35;;
42364;SDS011;28498;54.400;18.566;2022-11-21T05:52:48;37.70;;;16.85;;
42364;SDS011;28498;54.400;18.566;2022-11-21T05:55:16;37.92;;;17.38;;
42364;SDS011;28498;54.400;18.566;2022-11-21T05:57:43;38.63;;;16.67;;
42364;SDS011;28498;54.400;18.566;2022-11-21T06:00:10;31.02;;;15.13;;
42364;SDS011;28498;54.400;18.566;2022-11-21T06:02:37;32.92;;;15.32;;
42364;SDS011;28498;54.400;18.566;2022-11-21T06:05:23;29.67;;;12.82;;
42364;SDS011;28498;54.400;18.566;2022-11-21T06:07:50;29.08;;;13.98;;
42364;SDS011;28498;54.400;18.566;2022-11-21T06:10:17;25.65;;;12.35;;
42364;SDS011;28498;54.400;18.566;2022-11-21T06:12:44;24.80;;;11.57;;
42364;SDS011;28498;54.400;18.566;2022-11-21T06:15:11;26.08;;;11.60;;
42364;SDS011;28498;54.400;18.566;2022-11-21T06:17:38;25.30;;;11.63;;
42364;SDS011;28498;54.400;18.566;2022-11-21T06:20:05;27.83;;;13.77;;
42364;SDS011;28498;54.400;18.566;2022-11-21T06:22:33;26.65;;;11.80;;
42364;SDS011;28498;54.400;18.566;2022-11-21T06:25:00;29.98;;;13.80;;
42364;SDS011;28498;54.400;18.566;2022-11-21T06:27:27;32.05;;;14.30;;
42364;SDS011;28498;54.400;18.566;2022-11-21T06:29:55;31.10;;;14.23;;
42364;SDS011;28498;54.400;18.566;2022-11-21T06:32:21;30.77;;;13.73;;
42364;SDS011;28498;54.400;18.566;2022-11-21T06:34:48;35.00;;;16.75;;
42364;SDS011;28498;54.400;18.566;2022-11-21T06:37:15;34.90;;;15.52;;
42364;SDS011;28498;54.400;18.566;2022-11-21T06:39:42;29.77;;;13.55;;
42364;SDS011;28498;54.400;18.566;2022-11-21T06:42:09;30.05;;;13.98;;
42364;SDS011;28498;54.400;18.566;2022-11-21T06:44:36;33.50;;;14.50;;
42364;SDS011;28498;54.400;18.566;2022-11-21T06:47:03;29.88;;;14.25;;
42364;SDS011;28498;54.400;18.566;2022-11-21T06:49:30;33.30;;;14.93;;
42364;SDS011;28498;54.400;18.566;2022-11-21T06:51:57;29.42;;;13.88;;
42364;SDS011;28498;54.400;18.566;2022-11-21T06:54:24;35.42;;;15.02;;
42364;SDS011;28498;54.400;18.566;2022-11-21T06:56:51;31.88;;;14.73;;
42364;SDS011;28498;54.400;18.566;2022-11-21T06:59:20;29.30;;;13.30;;
42364;SDS011;28498;54.400;18.566;2022-11-21T07:01:47;31.70;;;14.05;;
42364;SDS011;28498;54.400;18.566;2022-11-21T07:04:15;33.33;;;14.95;;
42364;SDS011;28498;54.400;18.566;2022-11-21T07:06:42;31.90;;;13.80;;
42364;SDS011;28498;54.400;18.566;2022-11-21T07:09:09;43.50;;;16.63;;
42364;SDS011;28498;54.400;18.566;2022-11-21T07:11:56;34.85;;;16.67;;
42364;SDS011;28498;54.400;18.566;2022-11-21T07:14:43;33.28;;;15.85;;
42364;SDS011;28498;54.400;18.566;2022-11-21T07:17:10;36.95;;;17.08;;
42364;SDS011;28498;54.400;18.566;2022-11-21T07:19:38;42.45;;;17.80;;
42364;SDS011;28498;54.400;18.566;2022-11-21T07:22:06;35.80;;;17.08;;
42364;SDS011;28498;54.400;18.566;2022-11-21T07:24:33;38.10;;;17.45;;
42364;SDS011;28498;54.400;18.566;2022-11-21T07:27:01;37.22;;;17.75;;
42364;SDS011;28498;54.400;18.566;2022-11-21T07:29:28;36.72;;;17.33;;
42364;SDS011;28498;54.400;18.566;2022-11-21T07:31:55;38.03;;;18.17;;
42364;SDS011;28498;54.400;18.566;2022-11-21T07:34:22;36.83;;;17.48;;
42364;SDS011;28498;54.400;18.566;2022-11-21T07:36:49;38.13;;;18.15;;
42364;SDS011;28498;54.400;18.566;2022-11-21T07:39:17;38.67;;;18.42;;
42364;SDS011;28498;54.400;18.566;2022-11-21T07:41:44;42.45;;;16.92;;
42364;SDS011;28498;54.400;18.566;2022-11-21T07:44:11;37.20;;;17.63;;
42364;SDS011;28498;54.400;18.566;2022-11-21T07:46:38;43.30;;;18.13;;
42364;SDS011;28498;54.400;18.566;2022-11-21T07:49:05;31.83;;;15.90;;
42364;SDS011;28498;54.400;18.566;2022-11-21T07:51:32;38.20;;;18.65;;
42364;SDS011;28498;54.400;18.566;2022-11-21T07:53:59;39.83;;;18.67;;
42364;SDS011;28498;54.400;18.566;2022-11-21T07:56:27;162.70;;;23.83;;
42364;SDS011;28498;54.400;18.566;2022-11-21T07:58:54;39.88;;;17.02;;
42364;SDS011;28498;54.400;18.566;2022-11-21T08:01:21;41.42;;;17.90;;
42364;SDS011;28498;54.400;18.566;2022-11-21T08:03:48;38.70;;;18.42;;
42364;SDS011;28498;54.400;18.566;2022-11-21T08:06:15;39.63;;;17.40;;
42364;SDS011;28498;54.400;18.566;2022-11-21T08:08:42;39.75;;;17.38;;
42364;SDS011;28498;54.400;18.566;2022-11-21T08:11:09;38.05;;;16.48;;
42364;SDS011;28498;54.400;18.566;2022-11-21T08:13:36;39.83;;;18.27;;
42364;SDS011;28498;54.400;18.566;2022-11-21T08:16:03;36.97;;;16.60;;
42364;SDS011;28498;54.400;18.566;2022-11-21T08:18:30;36.58;;;17.50;;
42364;SDS011;28498;54.400;18.566;2022-11-21T08:24:44;35.42;;;16.85;;
42364;SDS011;28498;54.400;18.566;2022-11-21T08:27:12;34.70;;;15.73;;
42364;SDS011;28498;54.400;18.566;2022-11-21T08:29:39;35.05;;;15.70;;
42364;SDS011;28498;54.400;18.566;2022-11-21T08:32:06;38.22;;;16.35;;
42364;SDS011;28498;54.400;18.566;2022-11-21T08:38:15;30.42;;;14.40;;
42364;SDS011;28498;54.400;18.566;2022-11-21T08:40:42;35.50;;;15.48;;
42364;SDS011;28498;54.400;18.566;2022-11-21T08:43:09;32.28;;;15.23;;
42364;SDS011;28498;54.400;18.566;2022-11-21T08:45:36;33.72;;;16.23;;
42364;SDS011;28498;54.400;18.566;2022-11-21T08:48:08;35.33;;;15.05;;
42364;SDS011;28498;54.400;18.566;2022-11-21T08:50:36;35.58;;;16.48;;
42364;SDS011;28498;54.400;18.566;2022-11-21T08:56:57;38.65;;;16.88;;
42364;SDS011;28498;54.400;18.566;2022-11-21T08:59:23;38.67;;;16.83;;
42364;SDS011;28498;54.400;18.566;2022-11-21T09:01:50;37.35;;;16.45;;
42364;SDS011;28498;54.400;18.566;2022-11-21T09:04:18;34.45;;;16.27;;
42364;SDS011;28498;54.400;18.566;2022-11-21T09:06:45;40.30;;;17.65;;
42364;SDS011;28498;54.400;18.566;2022-11-21T09:09:13;40.25;;;17.35;;
42364;SDS011;28498;54.400;18.566;2022-11-21T09:11:40;42.42;;;19.42;;
42364;SDS011;28498;54.400;18.566;2022-11-21T09:14:07;40.15;;;18.25;;
42364;SDS011;28498;54.400;18.566;2022-11-21T09:16:53;38.55;;;18.92;;
42364;SDS011;28498;54.400;18.566;2022-11-21T09:19:38;43.40;;;19.05;;
42364;SDS011;28498;54.400;18.566;2022-11-21T09:22:05;42.70;;;19.48;;
42364;SDS011;28498;54.400;18.566;2022-11-21T09:24:32;42.80;;;18.42;;
42364;SDS011;28498;54.400;18.566;2022-11-21T09:26:59;44.97;;;20.65;;
42364;SDS011;28498;54.400;18.566;2022-11-21T09:29:26;44.85;;;20.27;;
42364;SDS011;28498;54.400;18.566;2022-11-21T09:31:53;49.47;;;22.88;;
42364;SDS011;28498;54.400;18.566;2022-11-21T09:34:20;43.92;;;21.13;;
42364;SDS011;28498;54.400;18.566;2022-11-21T09:36:47;45.78;;;21.63;;
42364;SDS011;28498;54.400;18.566;2022-11-21T09:39:13;46.70;;;23.42;;
42364;SDS011;28498;54.400;18.566;2022-11-21T09:49:51;54.08;;;25.50;;
42364;SDS011;28498;54.400;18.566;2022-11-21T09:52:27;61.55;;;29.58;;
42364;SDS011;28498;54.400;18.566;2022-11-21T09:55:05;64.25;;;31.30;;
42364;SDS011;28498;54.400;18.566;2022-11-21T10:02:13;63.28;;;30.05;;
42364;SDS011;28498;54.400;18.566;2022-11-21T10:04:42;68.25;;;32.05;;
42364;SDS011;28498;54.400;18.566;2022-11-21T10:07:12;69.30;;;32.50;;
42364;SDS011;28498;54.400;18.566;2022-11-21T10:23:35;76.57;;;37.28;;
42364;SDS011;28498;54.400;18.566;2022-11-21T10:26:35;67.38;;;32.28;;
42364;SDS011;28498;54.400;18.566;2022-11-21T10:29:10;75.35;;;36.25;;
42364;SDS011;28498;54.400;18.566;2022-11-21T10:31:40;65.32;;;31.45;;
42364;SDS011;28498;54.400;18.566;2022-11-21T10:34:09;67.45;;;32.95;;
42364;SDS011;28498;54.400;18.566;2022-11-21T10:36:44;77.22;;;32.80;;
42364;SDS011;28498;54.400;18.566;2022-11-21T10:42:03;68.07;;;30.48;;
42364;SDS011;28498;54.400;18.566;2022-11-21T10:48:26;65.95;;;29.58;;
42364;SDS011;28498;54.400;18.566;2022-11-21T10:54:02;58.15;;;27.80;;
42364;SDS011;28498;54.400;18.566;2022-11-21T10:56:48;66.60;;;28.38;;
42364;SDS011;28498;54.400;18.566;2022-11-21T10:59:21;59.08;;;28.27;;
42364;SDS011;28498;54.400;18.566;2022-11-21T11:02:00;55.72;;;27.75;;
42364;SDS011;28498;54.400;18.566;2022-11-21T11:04:46;60.97;;;28.45;;
42364;SDS011;28498;54.400;18.566;2022-11-21T11:07:26;59.97;;;28.98;;
42364;SDS011;28498;54.400;18.566;2022-11-21T11:10:13;60.30;;;27.38;;
42364;SDS011;28498;54.400;18.566;2022-11-21T11:12:40;56.08;;;28.40;;
42364;SDS011;28498;54.400;18.566;2022-11-21T11:15:30;61.72;;;29.33;;
42364;SDS011;28498;54.400;18.566;2022-11-21T11:17:58;61.50;;;28.35;;
42364;SDS011;28498;54.400;18.566;2022-11-21T11:20:43;64.93;;;28.95;;
42364;SDS011;28498;54.400;18.566;2022-11-21T11:25:51;66.43;;;31.15;;
42364;SDS011;28498;54.400;18.566;2022-11-21T11:32:24;62.55;;;29.98;;
42364;SDS011;28498;54.400;18.566;2022-11-21T11:37:19;72.53;;;31.65;;
42364;SDS011;28498;54.400;18.566;2022-11-21T11:40:13;66.47;;;29.77;;
42364;SDS011;28498;54.400;18.566;2022-11-21T11:52:21;66.18;;;31.90;;
42364;SDS011;28498;54.400;18.566;2022-11-21T11:54:54;71.30;;;34.40;;
42364;SDS011;28498;54.400;18.566;2022-11-21T11:57:25;76.22;;;35.58;;
42364;SDS011;28498;54.400;18.566;2022-11-21T12:00:31;69.75;;;35.20;;
42364;SDS011;28498;54.400;18.566;2022-11-21T12:02:54;82.18;;;37.38;;
42364;SDS011;28498;54.400;18.566;2022-11-21T12:05:32;73.90;;;37.60;;
42364;SDS011;28498;54.400;18.566;2022-11-21T12:08:04;80.03;;;38.10;;
42364;SDS011;28498;54.400;18.566;2022-11-21T12:11:08;87.30;;;40.63;;
42364;SDS011;28498;54.400;18.566;2022-11-21T12:13:55;83.22;;;36.75;;
42364;SDS011;28498;54.400;18.566;2022-11-21T12:16:23;88.68;;;41.10;;
42364;SDS011;28498;54.400;18.566;2022-11-21T12:18:57;79.25;;;40.53;;
42364;SDS011;28498;54.400;18.566;2022-11-21T12:21:28;77.82;;;38.63;;
42364;SDS011;28498;54.400;18.566;2022-11-21T12:24:00;87.60;;;40.45;;
42364;SDS011;28498;54.400;18.566;2022-11-21T12:38:08;86.88;;;39.83;;
42364;SDS011;28498;54.400;18.566;2022-11-21T12:43:49;88.70;;;38.55;;
42364;SDS011;28498;54.400;18.566;2022-11-21T12:46:30;86.78;;;38.03;;
42364;SDS011;28498;54.400;18.566;2022-11-21T12:50:04;86.30;;;39.27;;
42364;SDS011;28498;54.400;18.566;2022-11-21T12:52:30;78.00;;;36.42;;
42364;SDS011;28498;54.400;18.566;2022-11-21T13:05:52;84.93;;;38.42;;
42364;SDS011;28498;54.400;18.566;2022-11-21T13:08:26;87.13;;;38.42;;
42364;SDS011;28498;54.400;18.566;2022-11-21T13:13:41;84.65;;;35.67;;
42364;SDS011;28498;54.400;18.566;2022-11-21T13:16:21;85.43;;;38.70;;
42364;SDS011;28498;54.400;18.566;2022-11-21T13:21:53;87.07;;;40.05;;
42364;SDS011;28498;54.400;18.566;2022-11-21T13:27:33;91.45;;;41.10;;
42364;SDS011;28498;54.400;18.566;2022-11-21T13:32:39;82.50;;;39.20;;
42364;SDS011;28498;54.400;18.566;2022-11-21T13:40:36;85.47;;;37.38;;
42364;SDS011;28498;54.400;18.566;2022-11-21T13:45:56;83.05;;;39.67;;
42364;SDS011;28498;54.400;18.566;2022-11-21T14:10:47;99.68;;;41.50;;
42364;SDS011;28498;54.400;18.566;2022-11-21T14:13:24;99.45;;;43.72;;
42364;SDS011;28498;54.400;18.566;2022-11-21T14:18:41;103.15;;;42.10;;
42364;SDS011;28498;54.400;18.566;2022-11-21T14:21:26;100.40;;;44.15;;
42364;SDS011;28498;54.400;18.566;2022-11-21T14:23:57;106.68;;;44.63;;
42364;SDS011;28498;54.400;18.566;2022-11-21T14:26:37;104.43;;;43.40;;
42364;SDS011;28498;54.400;18.566;2022-11-21T14:32:12;92.72;;;39.85;;
42364;SDS011;28498;54.400;18.566;2022-11-21T14:34:39;98.30;;;42.78;;
42364;SDS011;28498;54.400;18.566;2022-11-21T14:37:06;97.43;;;42.15;;
42364;SDS011;28498;54.400;18.566;2022-11-21T14:39:33;104.82;;;44.45;;
42364;SDS011;28498;54.400;18.566;2022-11-21T14:42:11;91.78;;;41.85;;
42364;SDS011;28498;54.400;18.566;2022-11-21T14:44:41;100.95;;;41.95;;
42364;SDS011;28498;54.400;18.566;2022-11-21T14:49:52;102.93;;;42.50;;
42364;SDS011;28498;54.400;18.566;2022-11-21T14:52:31;101.22;;;42.72;;
42364;SDS011;28498;54.400;18.566;2022-11-21T14:55:00;95.72;;;42.45;;
42364;SDS011;28498;54.400;18.566;2022-11-21T14:57:49;98.18;;;41.58;;
42364;SDS011;28498;54.400;18.566;2022-11-21T15:00:18;98.20;;;43.15;;
42364;SDS011;28498;54.400;18.566;2022-11-21T15:03:20;98.65;;;41.10;;
42364;SDS011;28498;54.400;18.566;2022-11-21T15:05:51;104.53;;;44.42;;
42364;SDS011;28498;54.400;18.566;2022-11-21T15:08:32;103.50;;;45.85;;
42364;SDS011;28498;54.400;18.566;2022-11-21T15:14:01;105.95;;;44.55;;
42364;SDS011;28498;54.400;18.566;2022-11-21T15:16:42;101.82;;;44.72;;
42364;SDS011;28498;54.400;18.566;2022-11-21T15:19:17;100.57;;;43.42;;
42364;SDS011;28498;54.400;18.566;2022-11-21T15:21:54;108.78;;;44.65;;
42364;SDS011;28498;54.400;18.566;2022-11-21T15:24:29;95.85;;;43.92;;
42364;SDS011;28498;54.400;18.566;2022-11-21T15:26:58;101.40;;;43.65;;
42364;SDS011;28498;54.400;18.566;2022-11-21T15:29:26;95.50;;;41.78;;
42364;SDS011;28498;54.400;18.566;2022-11-21T15:32:04;109.53;;;45.33;;
42364;SDS011;28498;54.400;18.566;2022-11-21T15:34:54;100.55;;;43.55;;
42364;SDS011;28498;54.400;18.566;2022-11-21T15:37:21;105.93;;;44.67;;
42364;SDS011;28498;54.400;18.566;2022-11-21T15:39:50;103.75;;;45.33;;
42364;SDS011;28498;54.400;18.566;2022-11-21T15:45:03;102.80;;;44.47;;
42364;SDS011;28498;54.400;18.566;2022-11-21T15:47:47;100.88;;;42.08;;
42364;SDS011;28498;54.400;18.566;2022-11-21T15:50:14;98.93;;;43.80;;
42364;SDS011;28498;54.400;18.566;2022-11-21T15:52:45;105.88;;;45.15;;
42364;SDS011;28498;54.400;18.566;2022-11-21T15:55:21;103.32;;;45.40;;
42364;SDS011;28498;54.400;18.566;2022-11-21T15:57:51;97.95;;;41.97;;
42364;SDS011;28498;54.400;18.566;2022-11-21T16:00:18;93.68;;;44.30;;
42364;SDS011;28498;54.400;18.566;2022-11-21T16:02:45;110.18;;;44.17;;
42364;SDS011;28498;54.400;18.566;2022-11-21T16:05:13;107.43;;;45.35;;
42364;SDS011;28498;54.400;18.566;2022-11-21T16:07:41;98.65;;;42.28;;
42364;SDS011;28498;54.400;18.566;2022-11-21T16:10:08;99.20;;;42.92;;
42364;SDS011;28498;54.400;18.566;2022-11-21T16:12:46;100.78;;;44.22;;
42364;SDS011;28498;54.400;18.566;2022-11-21T16:15:13;101.93;;;44.28;;
42364;SDS011;28498;54.400;18.566;2022-11-21T16:17:40;103.60;;;46.60;;
42364;SDS011;28498;54.400;18.566;2022-11-21T16:20:07;111.38;;;45.67;;
42364;SDS011;28498;54.400;18.566;2022-11-21T16:22:34;105.57;;;45.47;;
42364;SDS011;28498;54.400;18.566;2022-11-21T16:25:01;103.50;;;44.10;;
42364;SDS011;28498;54.400;18.566;2022-11-21T16:27:30;103.95;;;44.25;;
42364;SDS011;28498;54.400;18.566;2022-11-21T16:29:57;101.47;;;43.28;;
42364;SDS011;28498;54.400;18.566;2022-11-21T16:36:12;97.72;;;41.58;;
42364;SDS011;28498;54.400;18.566;2022-11-21T16:38:41;102.85;;;45.85;;
42364;SDS011;28498;54.400;18.566;2022-11-21T16:41:08;106.05;;;47.10;;
42364;SDS011;28498;54.400;18.566;2022-11-21T16:43:35;101.25;;;43.13;;
42364;SDS011;28498;54.400;18.566;2022-11-21T16:46:06;99.78;;;45.17;;
42364;SDS011;28498;54.400;18.566;2022-11-21T16:48:34;103.00;;;45.92;;
42364;SDS011;28498;54.400;18.566;2022-11-21T16:51:19;104.10;;;44.97;;
42364;SDS011;28498;54.400;18.566;2022-11-21T16:53:47;105.75;;;42.53;;
42364;SDS011;28498;54.400;18.566;2022-11-21T16:56:15;98.63;;;44.08;;
42364;SDS011;28498;54.400;18.566;2022-11-21T16:58:42;106.90;;;42.28;;
42364;SDS011;28498;54.400;18.566;2022-11-21T17:01:15;98.25;;;42.70;;
42364;SDS011;28498;54.400;18.566;2022-11-21T17:06:13;113.72;;;47.25;;
42364;SDS011;28498;54.400;18.566;2022-11-21T17:08:44;110.65;;;48.97;;
42364;SDS011;28498;54.400;18.566;2022-11-21T17:13:47;105.22;;;43.92;;
42364;SDS011;28498;54.400;18.566;2022-11-21T17:16:16;105.07;;;43.60;;
42364;SDS011;28498;54.400;18.566;2022-11-21T17:18:44;106.50;;;45.47;;
42364;SDS011;28498;54.400;18.566;2022-11-21T17:21:12;113.38;;;44.22;;
42364;SDS011;28498;54.400;18.566;2022-11-21T17:23:42;103.50;;;46.22;;